Time;durP1;ratioP1;P1;durP2;ratioP2;P2;SDS_P1;SDS_P2;PMS_P1;PMS_P2;Temp;Humidity;BMP_temperature;BMP_pressure;BME280_temperature;BME280_humidity;BME280_pressure;Samples;Min_cycle;Max_cycle;Signal;HPM_P1;HPM_P2
2021/09/21 01:45:56;;;;;;;12.00;3.37;;;30.20;42.20;;;;;;5130884;27;20525;-16
2021/09/21 01:48:22;;;;;;;12.63;3.33;;;30.00;42.20;;;;;;5093273;28;20118;-20
2021/09/21 01:51:26;;;;;;;12.30;3.15;;;29.90;41.80;;;;;;5059087;28;20487;-21
2021/09/21 01:54:11;;;;;;;8.25;2.85;;;29.90;41.50;;;;;;5107570;28;20443;-18
2021/09/21 01:59:22;;;;;;;13.65;3.65;;;29.70;40.90;;;;;;5110792;28;20075;-19
2021/09/21 02:01:49;;;;;;;16.05;3.72;;;29.50;41.70;;;;;;5092245;28;20509;-17
2021/09/21 02:04:15;;;;;;;19.83;4.35;;;29.30;42.40;;;;;;5092153;28;20130;-26
2021/09/21 02:06:42;;;;;;;11.75;3.40;;;29.20;43.00;;;;;;5075554;28;20115;-18
2021/09/21 02:09:11;;;;;;;10.82;3.30;;;29.30;43.40;;;;;;5092008;28;20091;-26
2021/09/21 02:11:39;;;;;;;13.93;3.50;;;29.60;43.40;;;;;;5092024;28;20072;-17
2021/09/21 02:14:14;;;;;;;11.15;3.67;;;29.80;43.30;;;;;;5058891;28;20077;-18
2021/09/21 02:16:56;;;;;;;11.10;2.97;;;30.00;43.20;;;;;;5094101;28;20163;-15
2021/09/21 02:19:23;;;;;;;9.23;3.10;;;30.10;43.00;;;;;;5091807;28;20087;-17
2021/09/21 02:21:50;;;;;;;11.77;3.28;;;30.20;43.10;;;;;;5091880;28;20104;-19
2021/09/21 02:24:20;;;;;;;11.75;3.60;;;30.30;43.10;;;;;;5091873;28;20100;-23
2021/09/21 02:26:46;;;;;;;13.68;3.70;;;30.40;43.00;;;;;;5091566;28;20073;-20
2021/09/21 02:29:13;;;;;;;13.80;3.78;;;30.50;43.00;;;;;;5074812;28;20081;-26
2021/09/21 02:35:28;;;;;;;41.53;16.07;;;31.90;39.20;;;;;;5111115;27;20839;-64
2021/09/21 02:37:54;;;;;;;35.05;14.07;;;33.30;34.90;;;;;;5109534;28;20080;-63
2021/09/21 02:40:22;;;;;;;32.55;14.10;;;33.70;33.50;;;;;;5110712;28;20187;-63
2021/09/21 02:42:49;;;;;;;44.38;12.23;;;34.10;33.20;;;;;;5092721;28;20081;-65
2021/09/21 02:45:15;;;;;;;32.78;11.32;;;34.30;32.40;;;;;;5109390;28;20068;-63
2021/09/21 02:47:42;;;;;;;29.63;9.63;;;34.30;32.20;;;;;;5073657;28;20513;-63
2021/09/21 02:50:10;;;;;;;35.03;8.75;;;34.20;32.10;;;;;;5089460;28;20085;-64
2021/09/21 02:52:37;;;;;;;26.90;8.05;;;34.20;32.20;;;;;;5090173;28;20069;-66
2021/09/21 02:55:04;;;;;;;28.92;6.93;;;34.10;32.00;;;;;;5089840;28;20092;-66
2021/09/21 02:57:36;;;;;;;31.05;7.05;;;34.10;32.20;;;;;;5088938;28;20116;-64
2021/09/21 03:00:08;;;;;;;37.67;7.43;;;34.00;32.70;;;;;;5090091;28;20061;-65
2021/09/21 03:02:35;;;;;;;28.27;5.95;;;34.00;32.90;;;;;;5088745;28;20438;-63
2021/09/21 03:05:07;;;;;;;21.55;5.93;;;33.90;33.00;;;;;;5088608;28;20084;-65
2021/09/21 03:07:43;;;;;;;40.78;6.78;;;33.80;33.20;;;;;;5072695;28;20561;-68
2021/09/21 03:10:28;;;;;;;60.65;6.78;;;33.80;33.00;;;;;;5089430;28;20543;-66
2021/09/21 03:13:12;;;;;;;65.82;7.40;;;33.90;32.00;;;;;;5074119;28;20080;-65
2021/09/21 03:18:24;;;;;;;63.35;6.85;;;33.90;31.00;;;;;;5089973;28;20160;-66
2021/09/21 03:20:50;;;;;;;55.88;6.43;;;33.90;30.60;;;;;;5089600;28;20077;-67
2021/09/21 03:23:17;;;;;;;58.30;6.65;;;33.80;30.60;;;;;;5088413;28;20421;-64
2021/09/21 03:25:43;;;;;;;75.43;7.00;;;33.80;31.00;;;;;;5089646;28;20130;-67
2021/09/21 03:28:10;;;;;;;73.57;6.70;;;33.80;30.90;;;;;;5088388;28;20073;-69
2021/09/21 03:30:36;;;;;;;53.67;6.93;;;33.80;30.70;;;;;;5088087;28;20073;-67
2021/09/21 03:33:03;;;;;;;52.40;6.05;;;33.80;31.00;;;;;;5054711;28;20096;-68
2021/09/21 03:35:30;;;;;;;45.13;6.32;;;33.80;29.80;;;;;;5089418;28;20069;-68
2021/09/21 03:37:56;;;;;;;38.58;6.47;;;33.80;30.30;;;;;;5054800;28;20068;-64
2021/09/21 03:40:23;;;;;;;54.55;6.40;;;33.70;30.10;;;;;;5087801;28;20080;-66
2021/09/21 03:42:49;;;;;;;43.63;5.82;;;33.70;29.80;;;;;;5087909;28;20077;-65
2021/09/21 03:45:16;;;;;;;50.40;6.32;;;33.70;29.80;;;;;;5082925;28;20589;-66
2021/09/21 03:47:42;;;;;;;44.92;7.00;;;33.70;29.50;;;;;;5075783;28;20076;-64
2021/09/21 03:50:09;;;;;;;55.55;6.45;;;33.70;29.60;;;;;;5058008;28;20089;-65
2021/09/21 03:52:36;;;;;;;56.67;6.78;;;33.60;29.30;;;;;;5074197;28;20100;-67
2021/09/21 03:55:03;;;;;;;63.85;7.38;;;33.60;28.70;;;;;;5073794;28;20085;-63
2021/09/21 03:57:31;;;;;;;77.35;7.72;;;33.60;29.10;;;;;;5057618;28;20156;-65
2021/09/21 03:59:57;;;;;;;65.90;7.47;;;33.70;29.40;;;;;;5074274;28;20073;-66
2021/09/21 04:02:24;;;;;;;76.43;7.65;;;33.60;29.60;;;;;;5074091;28;20072;-67
2021/09/21 04:04:50;;;;;;;55.40;6.43;;;33.50;29.90;;;;;;5074163;28;20155;-66
2021/09/21 04:07:16;;;;;;;40.05;5.90;;;33.50;29.50;;;;;;5073811;28;20077;-64
2021/09/21 04:09:43;;;;;;;31.88;4.30;;;33.50;29.60;;;;;;5074144;28;20159;-64
2021/09/21 04:12:09;;;;;;;23.98;4.40;;;33.40;29.60;;;;;;5057157;28;20093;-66
2021/09/21 04:14:36;;;;;;;20.23;3.67;;;33.30;29.70;;;;;;5075029;28;20098;-67
2021/09/21 04:17:02;;;;;;;17.90;4.03;;;33.30;29.60;;;;;;5073841;28;20080;-66
2021/09/21 04:19:28;;;;;;;21.15;4.07;;;33.30;29.50;;;;;;5075100;28;20477;-63
2021/09/21 04:21:55;;;;;;;22.38;3.65;;;33.30;29.90;;;;;;5074838;28;20523;-65
2021/09/21 04:24:21;;;;;;;24.05;4.18;;;33.20;30.00;;;;;;5073772;28;20088;-63
2021/09/21 04:26:48;;;;;;;18.15;4.03;;;33.10;29.80;;;;;;5073909;28;20073;-66
2021/09/21 04:29:15;;;;;;;22.73;4.72;;;33.10;30.00;;;;;;5056985;28;20093;-68
2021/09/21 04:31:43;;;;;;;15.32;3.25;;;33.00;29.70;;;;;;5073541;28;20072;-64
2021/09/21 04:34:14;;;;;;;15.07;4.13;;;32.90;29.80;;;;;;5057336;28;20104;-68
2021/09/21 04:36:41;;;;;;;24.27;5.30;;;32.80;29.90;;;;;;5074262;28;20073;-64
2021/09/21 04:39:08;;;;;;;21.67;3.55;;;32.90;30.20;;;;;;5057003;28;20065;-65
2021/09/21 04:41:35;;;;;;;17.85;3.47;;;32.80;30.30;;;;;;5073452;28;20077;-66
2021/09/21 04:44:01;;;;;;;14.20;3.50;;;32.80;30.90;;;;;;5066343;28;20077;-66
2021/09/21 04:46:28;;;;;;;16.10;3.10;;;32.80;30.90;;;;;;5064695;28;20509;-65
2021/09/21 04:48:54;;;;;;;18.85;3.38;;;32.60;31.00;;;;;;5076281;28;20172;-66
2021/09/21 04:51:21;;;;;;;18.92;2.95;;;32.60;31.90;;;;;;5066656;28;20073;-64
2021/09/21 04:53:47;;;;;;;15.68;3.80;;;32.60;32.20;;;;;;5062302;28;20093;-65
2021/09/21 04:56:14;;;;;;;15.85;3.22;;;32.60;32.50;;;;;;5066315;28;20108;-64
2021/09/21 04:58:40;;;;;;;19.80;3.75;;;32.60;33.10;;;;;;5061494;28;20472;-66
2021/09/21 05:01:06;;;;;;;21.52;3.40;;;32.50;33.30;;;;;;5081389;28;20148;-64
2021/09/21 05:03:33;;;;;;;17.70;3.60;;;32.60;33.40;;;;;;5076612;28;20089;-67
2021/09/21 05:05:59;;;;;;;19.80;3.22;;;32.60;33.20;;;;;;5064910;28;20085;-65
2021/09/21 05:08:25;;;;;;;14.65;3.88;;;32.50;33.30;;;;;;5062021;28;20122;-63
2021/09/21 05:10:52;;;;;;;16.83;3.78;;;32.50;33.60;;;;;;5079326;28;20082;-64
2021/09/21 05:13:18;;;;;;;21.80;3.83;;;32.50;33.20;;;;;;5062835;28;20097;-63
2021/09/21 05:15:45;;;;;;;18.65;3.83;;;32.40;33.10;;;;;;5057390;28;20070;-70
2021/09/21 05:18:12;;;;;;;22.35;4.28;;;32.30;33.20;;;;;;5061963;28;20100;-64
2021/09/21 05:20:38;;;;;;;17.98;3.35;;;32.10;33.40;;;;;;5062032;28;20528;-65
2021/09/21 05:23:04;;;;;;;22.38;3.70;;;32.00;33.50;;;;;;5058080;28;20158;-65
2021/09/21 05:25:31;;;;;;;28.08;3.65;;;31.90;33.60;;;;;;5065595;28;20424;-64
2021/09/21 05:27:57;;;;;;;25.63;3.92;;;32.00;34.40;;;;;;5075405;28;20111;-63
2021/09/21 05:30:24;;;;;;;17.42;4.03;;;31.90;35.40;;;;;;5066362;28;20427;-63
2021/09/21 05:32:50;;;;;;;22.90;4.13;;;31.90;34.80;;;;;;5061688;28;20447;-63
2021/09/21 05:35:16;;;;;;;19.38;3.20;;;31.80;34.60;;;;;;5061300;28;20155;-64
2021/09/21 05:37:43;;;;;;;19.38;3.50;;;31.80;35.10;;;;;;5078836;28;20087;-64
2021/09/21 05:40:16;;;;;;;21.50;4.25;;;31.70;35.50;;;;;;5059537;28;20542;-64
2021/09/21 05:42:44;;;;;;;22.48;4.32;;;31.60;35.10;;;;;;5062102;28;20073;-63
2021/09/21 05:45:10;;;;;;;18.92;3.55;;;31.60;34.80;;;;;;5080734;28;20099;-62
2021/09/21 05:47:41;;;;;;;20.83;4.25;;;31.60;36.10;;;;;;5061026;28;20543;-63
2021/09/21 05:50:09;;;;;;;27.08;4.05;;;31.60;35.90;;;;;;5078516;28;20082;-65
2021/09/21 05:52:36;;;;;;;21.08;4.00;;;31.50;36.80;;;;;;5060957;28;20122;-63
2021/09/21 05:55:04;;;;;;;21.23;4.63;;;31.50;36.90;;;;;;5067158;28;20108;-63
2021/09/21 05:57:31;;;;;;;19.92;4.35;;;31.30;37.30;;;;;;5064845;28;20077;-63
2021/09/21 05:59:57;;;;;;;16.63;4.22;;;31.30;36.90;;;;;;5074792;28;20077;-64
2021/09/21 06:02:24;;;;;;;23.67;4.50;;;31.40;37.30;;;;;;5081648;28;20105;-65
2021/09/21 06:04:51;;;;;;;26.80;4.38;;;31.30;36.90;;;;;;5052464;28;20069;-64
2021/09/21 06:07:18;;;;;;;18.52;5.03;;;31.10;36.50;;;;;;5052463;28;20125;-63
2021/09/21 06:09:45;;;;;;;30.58;5.45;;;31.10;37.00;;;;;;5066196;28;20506;-65
2021/09/21 06:12:11;;;;;;;22.17;4.90;;;31.10;36.80;;;;;;5067553;28;20118;-63
2021/09/21 06:14:38;;;;;;;33.15;5.60;;;31.00;36.60;;;;;;5069948;28;20089;-63
2021/09/21 06:17:04;;;;;;;37.13;5.97;;;30.90;36.60;;;;;;5070108;28;20064;-63
2021/09/21 06:19:31;;;;;;;53.60;7.68;;;31.00;36.60;;;;;;5085914;28;20085;-63
2021/09/21 06:21:57;;;;;;;34.15;7.35;;;31.00;36.40;;;;;;5071171;28;20073;-63
2021/09/21 06:24:24;;;;;;;37.67;7.32;;;31.10;36.30;;;;;;5071049;28;20450;-63
2021/09/21 06:26:50;;;;;;;35.72;6.65;;;31.00;36.30;;;;;;5071605;28;20080;-64
2021/09/21 06:29:17;;;;;;;39.08;6.85;;;31.00;37.00;;;;;;5072241;28;20073;-64
2021/09/21 06:31:43;;;;;;;35.15;6.90;;;30.90;36.90;;;;;;5069629;28;20077;-65
2021/09/21 06:34:10;;;;;;;29.13;6.38;;;30.80;37.00;;;;;;5069180;28;20152;-63
2021/09/21 06:36:36;;;;;;;31.05;5.88;;;30.70;37.30;;;;;;5069878;28;20069;-63
2021/09/21 06:39:04;;;;;;;31.50;5.90;;;30.70;37.90;;;;;;5070419;28;20069;-65
2021/09/21 06:41:30;;;;;;;37.00;7.13;;;30.70;37.60;;;;;;5070334;28;20504;-65
2021/09/21 06:43:57;;;;;;;37.17;6.07;;;30.70;37.70;;;;;;5070832;28;20073;-65
2021/09/21 06:46:23;;;;;;;36.85;6.30;;;30.70;38.30;;;;;;5070211;28;20103;-63
2021/09/21 06:48:49;;;;;;;47.50;6.50;;;30.70;38.10;;;;;;5067436;28;20431;-66
2021/09/21 06:51:18;;;;;;;38.33;6.53;;;30.60;37.90;;;;;;5066396;28;20105;-64
2021/09/21 06:53:45;;;;;;;38.10;6.40;;;30.60;38.30;;;;;;5066508;28;20091;-63
2021/09/21 06:56:11;;;;;;;36.53;7.60;;;30.50;39.00;;;;;;5068799;28;20147;-65
2021/09/21 06:58:37;;;;;;;47.95;7.93;;;30.50;40.30;;;;;;5067275;28;20069;-66
2021/09/21 07:01:07;;;;;;;46.65;9.18;;;30.40;40.80;;;;;;5051884;28;20368;-63
2021/09/21 07:03:33;;;;;;;41.65;8.80;;;30.40;42.20;;;;;;5068457;28;20135;-65
2021/09/21 07:05:59;;;;;;;36.58;7.85;;;30.40;42.20;;;;;;5068927;28;20080;-62
2021/09/21 07:08:26;;;;;;;46.67;8.80;;;30.40;43.10;;;;;;5068063;28;20096;-65
2021/09/21 07:10:52;;;;;;;46.30;8.23;;;30.30;44.20;;;;;;5086663;28;20588;-65
2021/09/21 07:13:19;;;;;;;34.75;8.10;;;30.20;44.80;;;;;;5053211;28;20077;-65
2021/09/21 07:15:45;;;;;;;32.08;8.15;;;30.10;45.00;;;;;;5070017;28;20462;-63
2021/09/21 07:18:12;;;;;;;40.47;9.10;;;30.10;45.50;;;;;;5069306;28;20544;-63
2021/09/21 07:20:38;;;;;;;34.38;8.98;;;30.00;45.90;;;;;;5070634;28;20077;-64
2021/09/21 07:23:04;;;;;;;43.60;9.40;;;30.00;46.20;;;;;;5056886;28;20119;-62
2021/09/21 07:25:32;;;;;;;32.30;7.72;;;30.00;46.10;;;;;;5072911;28;20650;-65
2021/09/21 07:28:02;;;;;;;22.50;7.70;;;29.90;46.70;;;;;;5073762;28;20127;-65
2021/09/21 07:30:30;;;;;;;27.05;8.02;;;29.90;47.90;;;;;;5073835;28;20096;-62
2021/09/21 07:32:56;;;;;;;26.17;7.28;;;30.00;48.40;;;;;;5069062;28;20161;-65
2021/09/21 07:35:22;;;;;;;24.40;7.43;;;30.00;49.10;;;;;;5073038;28;20563;-63
2021/09/21 07:37:49;;;;;;;23.88;7.82;;;30.00;49.50;;;;;;5081705;28;20165;-64
2021/09/21 07:40:19;;;;;;;20.58;6.97;;;29.90;49.70;;;;;;5071892;28;20069;-63
2021/09/21 07:42:46;;;;;;;29.45;7.63;;;29.90;50.30;;;;;;5073219;28;20104;-63
2021/09/21 07:45:13;;;;;;;23.63;6.95;;;29.80;50.50;;;;;;5073359;28;20080;-64
2021/09/21 07:47:39;;;;;;;25.35;7.97;;;29.80;50.60;;;;;;5073432;28;20549;-64
2021/09/21 07:50:07;;;;;;;30.33;11.27;;;29.80;50.80;;;;;;5073299;28;20074;-64
2021/09/21 07:52:34;;;;;;;38.90;13.45;;;29.70;51.10;;;;;;5072779;28;20164;-63
2021/09/21 07:55:00;;;;;;;34.47;13.82;;;29.70;51.40;;;;;;5072192;28;20089;-63
2021/09/21 07:57:27;;;;;;;42.58;14.82;;;29.70;51.80;;;;;;5072242;28;20530;-64
2021/09/21 07:59:53;;;;;;;33.50;14.82;;;29.70;52.00;;;;;;5054226;28;20071;-63
2021/09/21 08:02:20;;;;;;;43.90;15.52;;;29.60;52.20;;;;;;5073355;28;20061;-66
2021/09/21 08:04:46;;;;;;;41.13;15.70;;;29.60;52.40;;;;;;5054805;28;20128;-66
2021/09/21 08:07:12;;;;;;;36.88;16.40;;;29.60;52.60;;;;;;5073043;28;20077;-66
2021/09/21 08:09:39;;;;;;;41.05;16.73;;;29.60;52.90;;;;;;5073305;28;20172;-65
2021/09/21 08:12:06;;;;;;;39.25;17.58;;;29.50;53.00;;;;;;5072719;28;20578;-63
2021/09/21 08:14:37;;;;;;;47.60;17.42;;;29.50;53.50;;;;;;5088411;28;20115;-65
2021/09/21 08:17:05;;;;;;;38.85;15.80;;;29.40;53.40;;;;;;5071825;28;20591;-62
2021/09/21 08:19:31;;;;;;;43.63;15.45;;;29.50;53.50;;;;;;5055804;28;20117;-63
2021/09/21 08:21:58;;;;;;;39.78;13.57;;;29.50;53.50;;;;;;5070197;28;20072;-65
2021/09/21 08:24:25;;;;;;;34.42;12.23;;;29.40;54.10;;;;;;5068414;28;20085;-64
2021/09/21 08:26:51;;;;;;;37.83;14.00;;;29.30;54.10;;;;;;5069030;28;20543;-65
2021/09/21 08:29:18;;;;;;;43.28;14.95;;;29.30;53.90;;;;;;5069917;28;20088;-64
2021/09/21 08:31:44;;;;;;;40.90;16.17;;;29.30;53.80;;;;;;5069046;28;20073;-64
2021/09/21 08:34:11;;;;;;;45.67;17.10;;;29.50;53.70;;;;;;5069592;28;20124;-66
2021/09/21 08:36:37;;;;;;;43.63;16.77;;;29.50;53.70;;;;;;5069510;28;20077;-64
2021/09/21 08:39:04;;;;;;;48.95;19.13;;;29.40;53.90;;;;;;5068425;28;20120;-64
2021/09/21 08:41:32;;;;;;;50.60;19.17;;;29.40;54.00;;;;;;5071514;28;20172;-63
2021/09/21 08:43:58;;;;;;;52.85;21.60;;;29.50;54.00;;;;;;5055731;28;20069;-65
2021/09/21 08:46:25;;;;;;;62.20;23.60;;;29.40;54.20;;;;;;5071673;28;20085;-64
2021/09/21 08:48:51;;;;;;;58.63;25.00;;;29.40;54.30;;;;;;5072694;28;20415;-65
2021/09/21 08:51:18;;;;;;;62.80;26.30;;;29.30;54.40;;;;;;5072325;28;20514;-65
2021/09/21 08:53:44;;;;;;;68.15;26.88;;;29.30;54.60;;;;;;5071579;28;20091;-65
2021/09/21 08:56:11;;;;;;;62.35;25.42;;;29.30;54.60;;;;;;5071869;28;20550;-64
2021/09/21 08:58:39;;;;;;;75.82;27.52;;;29.20;55.00;;;;;;5088060;28;20077;-64
2021/09/21 09:01:15;;;;;;;76.55;28.13;;;29.20;55.00;;;;;;5055244;28;20514;-66
2021/09/21 09:03:56;;;;;;;69.55;27.55;;;29.30;55.00;;;;;;5067749;28;20081;-64
2021/09/21 09:06:23;;;;;;;70.78;26.75;;;29.10;55.20;;;;;;5072260;28;20073;-63
2021/09/21 09:08:50;;;;;;;65.78;25.92;;;29.10;55.40;;;;;;5071168;28;20607;-64
2021/09/21 09:11:26;;;;;;;65.78;26.80;;;28.90;55.70;;;;;;5070524;28;20081;-65
2021/09/21 09:13:55;;;;;;;70.47;25.27;;;28.80;56.00;;;;;;5073076;28;20596;-64
2021/09/21 09:16:25;;;;;;;68.18;25.70;;;28.80;56.10;;;;;;5088219;28;20104;-66
2021/09/21 09:19:06;;;;;;;65.40;25.08;;;28.90;56.10;;;;;;5071493;28;20481;-64
2021/09/21 09:21:38;;;;;;;57.17;23.80;;;28.90;56.00;;;;;;5071466;28;20121;-65
2021/09/21 09:24:06;;;;;;;70.32;26.58;;;28.80;56.60;;;;;;5078555;22;20105;-66
2021/09/21 09:26:38;;;;;;;62.70;23.95;;;28.70;57.00;;;;;;5052055;28;20066;-64
2021/09/21 09:29:13;;;;;;;72.72;23.95;;;28.70;57.30;;;;;;5033361;28;20081;-64
2021/09/21 09:31:42;;;;;;;64.20;21.93;;;28.70;57.20;;;;;;5051515;28;20540;-66
2021/09/21 09:34:15;;;;;;;50.28;19.85;;;28.60;57.40;;;;;;5051330;28;20085;-65
2021/09/21 09:36:50;;;;;;;55.08;19.30;;;28.50;57.30;;;;;;5051251;28;20131;-66
2021/09/21 09:39:19;;;;;;;51.15;17.50;;;28.60;57.00;;;;;;5052215;28;20073;-66
2021/09/21 09:41:47;;;;;;;43.80;16.38;;;28.50;57.10;;;;;;5050895;28;20074;-66
2021/09/21 09:44:17;;;;;;;50.58;16.02;;;28.50;57.40;;;;;;5051055;28;20073;-66
2021/09/21 09:47:02;;;;;;;39.88;15.85;;;28.40;57.40;;;;;;5056454;28;20188;-64
2021/09/21 09:49:47;;;;;;;40.13;15.13;;;28.40;58.10;;;;;;5051419;28;20152;-65
2021/09/21 09:52:16;;;;;;;38.97;14.63;;;28.30;58.10;;;;;;5052421;28;20438;-64
2021/09/21 09:54:45;;;;;;;30.55;9.48;;;28.30;57.90;;;;;;5034837;28;20089;-66
2021/09/21 09:57:12;;;;;;;32.60;9.82;;;28.40;57.70;;;;;;5050659;28;20097;-64
2021/09/21 09:59:41;;;;;;;39.13;10.90;;;28.30;57.80;;;;;;5032593;28;20073;-64
2021/09/21 10:02:07;;;;;;;26.35;9.65;;;28.30;58.50;;;;;;5034711;28;20070;-66
2021/09/21 10:04:35;;;;;;;33.90;9.40;;;28.30;58.20;;;;;;5051472;28;20093;-64
2021/09/21 10:07:01;;;;;;;22.40;9.30;;;28.30;58.40;;;;;;5049688;28;20076;-65
2021/09/21 10:09:27;;;;;;;29.35;9.40;;;28.10;58.40;;;;;;5051023;28;20073;-65
2021/09/21 10:11:57;;;;;;;29.42;9.02;;;28.10;58.70;;;;;;5050274;28;20093;-64
2021/09/21 10:14:25;;;;;;;28.05;9.00;;;28.10;58.60;;;;;;5049704;28;20093;-64
2021/09/21 10:17:03;;;;;;;28.95;9.02;;;28.10;58.40;;;;;;5041840;28;20489;-63
2021/09/21 10:19:31;;;;;;;29.73;10.23;;;28.10;58.60;;;;;;5017795;28;20073;-63
2021/09/21 10:21:58;;;;;;;37.92;12.38;;;27.90;59.10;;;;;;5034593;28;20096;-65
2021/09/21 10:24:39;;;;;;;35.97;10.88;;;28.10;58.70;;;;;;5060497;28;20124;-63
2021/09/21 10:27:09;;;;;;;42.35;10.57;;;28.20;58.30;;;;;;5033082;28;20123;-65
2021/09/21 10:29:35;;;;;;;39.13;11.32;;;28.10;58.50;;;;;;5048588;28;20073;-65
2021/09/21 10:32:13;;;;;;;37.97;12.75;;;28.00;58.70;;;;;;5046464;28;20089;-63
2021/09/21 10:34:47;;;;;;;48.45;13.85;;;28.00;58.50;;;;;;5033898;28;20081;-63
2021/09/21 10:37:17;;;;;;;39.83;14.40;;;28.30;58.80;;;;;;5049681;28;20073;-63
2021/09/21 10:39:43;;;;;;;37.67;12.65;;;28.00;58.80;;;;;;5044755;28;20074;-63
2021/09/21 10:42:20;;;;;;;45.63;14.18;;;27.90;58.90;;;;;;5050583;28;20104;-65
2021/09/21 10:44:52;;;;;;;66.57;19.83;;;27.80;59.30;;;;;;5058493;28;20073;-63
2021/09/21 10:47:25;;;;;;;52.88;17.90;;;27.80;59.50;;;;;;5050807;28;20565;-63
2021/09/21 10:49:52;;;;;;;43.70;16.30;;;27.70;59.60;;;;;;5018128;28;20101;-65
2021/09/21 10:52:25;;;;;;;44.60;15.50;;;27.70;59.60;;;;;;5050400;28;20084;-64
2021/09/21 10:54:54;;;;;;;61.08;16.77;;;27.60;59.50;;;;;;5050269;28;20086;-64
2021/09/21 10:57:32;;;;;;;57.58;22.15;;;27.50;59.60;;;;;;5043577;28;20078;-67
2021/09/21 11:00:20;;;;;;;61.47;24.70;;;27.40;59.90;;;;;;5043853;28;20536;-66
2021/09/21 11:02:54;;;;;;;70.82;31.35;;;27.60;59.80;;;;;;5041289;28;20195;-66
2021/09/21 11:05:31;;;;;;;84.25;39.90;;;27.60;60.00;;;;;;5044428;28;20089;-66
2021/09/21 11:07:59;;;;;;;89.88;41.92;;;27.50;60.30;;;;;;5043511;28;20535;-64
2021/09/21 11:10:31;;;;;;;65.70;32.85;;;27.40;60.70;;;;;;5051885;28;20084;-66
2021/09/21 11:12:58;;;;;;;62.40;27.77;;;27.30;61.40;;;;;;5038096;28;20089;-66
2021/09/21 11:15:27;;;;;;;57.38;23.30;;;27.20;62.10;;;;;;5037675;28;20111;-66
2021/09/21 11:18:11;;;;;;;40.35;15.88;;;27.20;62.20;;;;;;5052548;28;20078;-64
2021/09/21 11:20:45;;;;;;;37.42;13.80;;;27.10;62.30;;;;;;5053368;28;20086;-64
2021/09/21 11:23:12;;;;;;;37.35;15.05;;;27.00;62.90;;;;;;5035856;28;20435;-65
2021/09/21 11:25:38;;;;;;;39.33;11.57;;;27.10;62.80;;;;;;5051003;28;20161;-64
2021/09/21 11:28:06;;;;;;;25.08;10.07;;;26.90;62.90;;;;;;5047482;28;20069;-64
2021/09/21 11:30:33;;;;;;;42.17;14.10;;;26.90;63.50;;;;;;5046249;28;20523;-66
2021/09/21 11:33:15;;;;;;;65.72;36.08;;;27.10;63.30;;;;;;5052287;28;20975;-65
2021/09/21 11:35:54;;;;;;;59.38;31.50;;;27.10;63.10;;;;;;5044884;28;20069;-66
2021/09/21 11:38:22;;;;;;;52.25;22.35;;;27.10;63.00;;;;;;5032150;28;20446;-66
2021/09/21 11:40:51;;;;;;;47.83;17.95;;;27.00;63.20;;;;;;5051064;28;20543;-66
2021/09/21 11:43:18;;;;;;;43.17;16.27;;;27.00;63.60;;;;;;5041320;28;20177;-66
2021/09/21 11:45:48;;;;;;;37.95;14.23;;;27.00;63.90;;;;;;5035181;28;20090;-65
2021/09/21 11:48:15;;;;;;;38.25;15.27;;;27.00;63.60;;;;;;5051916;28;20180;-67
2021/09/21 11:50:44;;;;;;;36.83;12.70;;;27.00;63.60;;;;;;5045640;28;20165;-66
2021/09/21 11:53:15;;;;;;;36.75;10.93;;;27.00;63.90;;;;;;5047090;28;20478;-66
2021/09/21 11:55:44;;;;;;;28.58;10.88;;;26.90;63.90;;;;;;5053604;28;20097;-67
2021/09/21 11:58:14;;;;;;;33.78;11.77;;;27.00;64.20;;;;;;5037600;28;20073;-67
2021/09/21 12:00:46;;;;;;;28.05;10.48;;;26.90;64.10;;;;;;5037185;28;20097;-65
2021/09/21 12:03:17;;;;;;;21.10;9.70;;;26.80;65.10;;;;;;5043719;28;20084;-65
2021/09/21 12:05:46;;;;;;;28.52;9.75;;;26.80;64.80;;;;;;5036522;28;20554;-67
2021/09/21 12:08:16;;;;;;;24.80;9.02;;;26.70;65.50;;;;;;5035811;28;20140;-65
2021/09/21 12:10:52;;;;;;;24.50;8.57;;;26.80;65.20;;;;;;5050615;28;20585;-65
2021/09/21 12:13:24;;;;;;;23.33;8.70;;;26.80;65.20;;;;;;5053441;28;20442;-65
2021/09/21 12:15:59;;;;;;;23.70;8.13;;;26.70;65.80;;;;;;5037170;28;20326;-67
2021/09/21 12:18:26;;;;;;;27.27;8.52;;;26.70;65.60;;;;;;5052388;28;20096;-66
2021/09/21 12:20:59;;;;;;;26.10;8.10;;;26.70;65.80;;;;;;5034034;28;20069;-64
2021/09/21 12:23:31;;;;;;;25.75;8.80;;;26.50;66.20;;;;;;5043175;28;20110;-67
2021/09/21 12:26:00;;;;;;;22.52;8.10;;;26.50;66.60;;;;;;5043484;28;20539;-65
2021/09/21 12:28:44;;;;;;;22.90;8.38;;;26.50;66.80;;;;;;5041547;28;20077;-67
2021/09/21 12:31:31;;;;;;;26.58;8.50;;;26.50;67.10;;;;;;5035196;28;20633;-67
2021/09/21 12:34:05;;;;;;;29.52;7.78;;;26.40;67.10;;;;;;5027907;28;20093;-64
2021/09/21 12:36:42;;;;;;;25.45;8.00;;;26.40;67.40;;;;;;5050611;28;20150;-65
2021/09/21 12:39:11;;;;;;;25.92;8.52;;;26.30;67.50;;;;;;5035521;28;20545;-65
2021/09/21 12:41:40;;;;;;;27.05;8.23;;;26.30;67.50;;;;;;5051194;28;20086;-64
2021/09/21 12:44:09;;;;;;;25.73;7.93;;;26.30;67.50;;;;;;5043865;28;20138;-66
2021/09/21 12:46:38;;;;;;;27.95;8.07;;;26.30;67.20;;;;;;5050364;28;20152;-67
2021/09/21 12:49:05;;;;;;;23.73;7.72;;;26.30;67.20;;;;;;5052608;28;20535;-67
2021/09/21 12:51:41;;;;;;;30.20;8.32;;;26.20;67.40;;;;;;5051915;28;20523;-67
2021/09/21 12:54:12;;;;;;;24.00;7.80;;;26.20;67.50;;;;;;5044598;28;20190;-67
2021/09/21 12:56:42;;;;;;;33.08;8.48;;;26.20;67.20;;;;;;5052693;28;20094;-67
2021/09/21 12:59:14;;;;;;;32.72;8.40;;;26.10;68.30;;;;;;5052708;28;20438;-65
2021/09/21 13:01:41;;;;;;;33.95;8.48;;;26.10;68.20;;;;;;5052494;28;20489;-67
2021/09/21 13:04:08;;;;;;;32.47;8.25;;;26.20;68.10;;;;;;5052411;28;20074;-65
2021/09/21 13:06:36;;;;;;;26.60;8.10;;;26.30;68.20;;;;;;5034132;28;20082;-67
2021/09/21 13:09:04;;;;;;;40.25;8.90;;;26.20;68.00;;;;;;5049209;28;20094;-67
2021/09/21 13:11:31;;;;;;;33.10;8.50;;;26.20;68.30;;;;;;5050056;28;20086;-67
2021/09/21 13:13:58;;;;;;;31.60;8.00;;;26.20;68.40;;;;;;5043637;28;20092;-66
2021/09/21 13:16:25;;;;;;;28.40;9.32;;;26.20;68.10;;;;;;5038046;28;20434;-65
2021/09/21 13:18:52;;;;;;;31.92;8.43;;;26.20;68.30;;;;;;5048620;28;20070;-67
2021/09/21 13:21:20;;;;;;;28.38;8.93;;;26.10;68.40;;;;;;5048988;28;20550;-67
2021/09/21 13:23:47;;;;;;;35.95;8.88;;;26.10;68.90;;;;;;5044042;28;20117;-65
2021/09/21 13:26:15;;;;;;;27.88;8.50;;;26.00;69.20;;;;;;5050854;28;20085;-67
2021/09/21 13:28:42;;;;;;;33.13;8.40;;;26.00;69.60;;;;;;5043576;28;20077;-67
2021/09/21 13:31:09;;;;;;;35.60;8.93;;;26.10;69.60;;;;;;5044203;28;20157;-66
2021/09/21 13:33:37;;;;;;;26.98;8.90;;;25.90;70.10;;;;;;5044324;28;20078;-66
2021/09/21 13:36:05;;;;;;;25.20;8.30;;;26.00;70.10;;;;;;5049721;28;20177;-65
2021/09/21 13:38:32;;;;;;;56.80;10.45;;;26.00;70.00;;;;;;5051542;28;20543;-65
2021/09/21 13:40:58;;;;;;;57.70;10.60;;;25.80;70.50;;;;;;5042253;28;20105;-65
2021/09/21 13:43:25;;;;;;;46.63;10.48;;;25.90;70.80;;;;;;5042601;28;20129;-66
2021/09/21 13:45:51;;;;;;;43.47;9.40;;;26.00;70.60;;;;;;5051697;28;20085;-65
2021/09/21 13:48:18;;;;;;;32.72;8.90;;;26.00;70.40;;;;;;5041479;28;20078;-66
2021/09/21 13:50:44;;;;;;;44.75;9.65;;;26.00;70.50;;;;;;5048521;28;20090;-68
2021/09/21 13:53:10;;;;;;;52.03;10.98;;;25.80;71.70;;;;;;5043622;28;20105;-65
2021/09/21 13:55:37;;;;;;;48.67;11.20;;;25.90;71.10;;;;;;5044488;28;20092;-66
2021/09/21 13:58:04;;;;;;;50.20;11.13;;;25.90;70.90;;;;;;5033335;28;20078;-66
2021/09/21 14:00:30;;;;;;;45.25;11.00;;;26.00;70.70;;;;;;5048930;28;20109;-66
2021/09/21 14:02:57;;;;;;;48.60;10.23;;;26.00;70.40;;;;;;5042803;28;20070;-66
2021/09/21 14:05:28;;;;;;;45.00;12.25;;;26.00;70.80;;;;;;5049614;28;20077;-65
2021/09/21 14:07:55;;;;;;;56.83;12.05;;;26.10;70.30;;;;;;5044295;28;20164;-64
2021/09/21 14:10:21;;;;;;;64.40;12.05;;;26.00;70.30;;;;;;5043425;28;20555;-67
2021/09/21 14:12:48;;;;;;;84.15;14.05;;;25.90;71.00;;;;;;5039969;28;20081;-67
2021/09/21 14:15:16;;;;;;;81.88;15.13;;;26.00;70.70;;;;;;5033037;28;20086;-67
2021/09/21 14:17:45;;;;;;;80.28;15.10;;;26.10;70.00;;;;;;5042504;28;20085;-66
2021/09/21 14:20:14;;;;;;;112.28;17.92;;;26.10;69.90;;;;;;5032024;28;20078;-65
2021/09/21 14:22:41;;;;;;;108.78;16.10;;;26.20;69.50;;;;;;5049688;28;20152;-65
2021/09/21 14:25:08;;;;;;;111.43;16.27;;;26.30;69.20;;;;;;5043889;28;20173;-65
2021/09/21 14:27:35;;;;;;;102.43;16.55;;;26.30;69.00;;;;;;5048788;28;20105;-64
2021/09/21 14:30:06;;;;;;;96.05;16.58;;;26.30;69.00;;;;;;5048021;28;20196;-63
2021/09/21 14:32:32;;;;;;;103.05;17.95;;;26.40;68.70;;;;;;5043716;28;20082;-66
2021/09/21 14:34:58;;;;;;;121.20;20.17;;;26.40;68.60;;;;;;5049309;28;20121;-67